Plane headed for Denver crashes in Ch...

Plane headed for Denver crashes in Chicago suburb

There are 4 comments on the Fox 31 KDVR story from Jan 23, 2010, titled Plane headed for Denver crashes in Chicago suburb. In it, Fox 31 KDVR reports that:

Two people were killed tonight when a small plane crashed into a home in a subdivision near Waubonsee Community College in the far west suburb of Sugar Grove.

Join the discussion below, or Read more at Fox 31 KDVR.

Debby

Sugar Grove, IL

#1 Jan 23, 2010
2 People were in the plane, not anyone on the ground were killed.. Debre hit a house not the plane.

“Uzi Does It”

Since: Nov 08

UZILAND

#2 Jan 23, 2010
Crack up?
Paul A

Denver, CO

#3 Jan 23, 2010
Just wondering, why don't you have video from your sister station WFLD?? wouldn't that make sense you are both part of FOX???
Just a thought...( www.myfoxchicago.com )

“Uzi Does It”

Since: Nov 08

UZILAND

#4 Jan 23, 2010
Output produced by METARs form (0423 UTC 24 January 2010)
found at http://adds.aviationweather.noaa.gov/metars/i...


KARR 240352Z AUTO 11009KT 3SM BR OVC005 05/04 A2952 RMK AO2 SLP001 T00500044
KARR 240336Z AUTO 11010KT 3SM BR OVC005 05/05 A2955 RMK AO2
KARR 240318Z AUTO 12011KT 2 1/2SM BR OVC005 05/05 A2956 RMK AO2
KARR 240252Z 12013KT 2SM BR OVC003 05/04 A2958 RMK AO2 SLP021 T00500044 58018
KARR 240249Z 11012KT 2SM BR OVC003 05/04 A2957 RMK AO2
KARR 240152Z 13011KT 1 1/4SM BR OVC001 04/04 A2961 RMK AO2 SLP031 T00440044
KARR 240138Z 12010KT 1SM BR OVC001 04/04 A2961 RMK AO2
KARR 240052Z 14007KT 1/2SM FG VV001 04/04 A2963 RMK AO2 SLP040 T00390039
KARR 232352Z 13009KT 1/4SM FG VV001 03/03 A2963 RMK AO2 SLP040 T00330033 10033 20028 55011
KARR 232252Z 12011KT 1/4SM FG VV001 03/03 A2963 RMK AO2 SLP040 T00330033
KARR 232152Z 14011KT 1/4SM FG VV001 03/03 A2964 RMK AO2 SLP044 T00330028
KARR 232117Z 14014KT 1/4SM FG VV001 03/03 A2966 RMK AO2
KARR 232103Z 14014KT 1/4SM FG OVC002 03/03 A2966 RMK AO2
KARR 232052Z 14015KT 1/2SM FG OVC002 03/03 A2967 RMK AO2 SLP051 T00280028 56035
KARR 232018Z 13016KT 1/2SM FG OVC002 03/03 A2965 RMK AO2
KARR 231952Z 14014KT 1/4SM FG OVC002 03/03 A2969 RMK AO2 SLP059 T00280028
KARR 231852Z 14012KT 1/2SM FG OVC002 03/02 A2973 RMK AO2 SLP073 T00280022
KARR 231752Z 13011KT 3/4SM BR OVC004 03/02 A2977 RMK AO2 PRESFR SLP087 T00280022 10028 20011 58034
KARR 231652Z 13012KT 1 1/2SM BR OVC002 03/02 A2981 RMK AO2 SLP102 T00280017
KARR 231552Z 13012KT 1 1/4SM BR OVC002 02/01 A2986 RMK AO2 SLP119 T00220011
KARR 231452Z 13011KT 1SM BR OVC002 02/01 A2987 RMK AO2 SLP122 T00170011 56014
KARR 231352Z 12011KT 1 1/4SM BR OVC002 01/01 A2988 RMK AO2 SLP125 T00110011
KARR 231252Z AUTO 11009KT 1 1/4SM BR OVC002 01/01 A2989 RMK AO2 SLP129 T00110006
KARR 231219Z AUTO 11009KT 1SM BR OVC002 01/01 A2990 RMK AO2

KARR 231152Z AUTO 12008KT 3/4SM BR OVC002 01/01 A2991 RMK AO2 SLP136 7//// T00110006 10011 20011 55005

KARR 231052Z AUTO 12009KT 3/4SM BR OVC002 01/01 A2991 RMK AO2 SLP134 T00110006

Tell me when this thread is updated:

Subscribe Now Add to my Tracker

Add your comments below

Characters left: 4000

Please note by submitting this form you acknowledge that you have read the Terms of Service and the comment you are posting is in compliance with such terms. Be polite. Inappropriate posts may be removed by the moderator. Send us your feedback.

Sugar Grove Discussions

Title Updated Last By Comments
News 5 years in prison for $618,000 theft from St. C... Tue lame 1
Review: iLoveKickboxing - Aurora (Feb '15) Aug 19 Nikki abbas 60
News Take a guided tour of Viking ship Saturday Aug 17 Katie m 1
News Man charged with aggravated sexual assault held... Aug 9 Sad 4
News Batavia to air hearing on controversial Campana... Aug 4 Michael Sandstrom 3
News Three suspects arrested in connection with Syca... Aug 1 Mike B 2
News Alice's Place in Elburn: 6 photos Jul 26 really? 1

Sugar Grove Jobs

More from around the web

Personal Finance

Sugar Grove Mortgages